Wetterstation Rottenburg Seebronn / 442m msl / http://mut-lambrecht.de
LETZTE AKTUALISIERUNG UM: 18:40 DATUM: September 21 2021, time of next update: 18:45
Aktuelles Wettermostly cloudy Aktuelle Temperatur 15.6°C (60.1°F), Apparent temp 14.7°C
Höchsttemperatur (seit Mitternacht)16.9°C um: 15:06 Tiefsttemperatur (seit Mitternacht)10.4°C um: 00:44
Windgeschwindigkeit (10 Minuten )5.4 kmh (2.9 kts) Windrichtung (Dir) (10 Minuten )NE (54°)
Windchill Temperatur 15.6°C Windspitzen (letzte Std)11.7 kmh (6.3 kts) um: 18:31
Windspitzen (seit Mitternacht)20.5 kmh (11.1 kts) um: 15:53 Höchstes Windmittel / Minute (seit Mitternacht)8.7 kmh (4.7 kts) um: 11:43
Regenmenge (letzte Std)0.0 mm Regenmenge (seit Mitternacht)0.0 mm (0.00 in.)---
Regenmenge diesen Monat 2.1 mm (0.08 in.) Regenmenge seit Jahresbeginn 989.9 mm (38.97 in.)
Höchste Regenmenge pro Minute (letzte Std)0.0 mm/min Höchste Regenmenge pro Stunde (letzte 6 Std)0.0 mm/stunde
Regenmenge Gestern 0.0 mm Taupunkt 7.6°C (Wet Bulb :11.6°C )
Luftfeuchtigkeit 59 %, Humidex 15.9°C Aktueller Luftdruck (auf Meereshöhe bezogen)1029.4 hPa
Luftdrucktendenz 0.1 hPa (letzte Std) Trend (letzte 1 Std)gleichbleibend
Luftdrucktendenz (letzte 12 Std)+4.9 hPa Luftdrucktendenz (letzte 6 Std)+1.0 hPa


Grafische Darstellung der letzten 24 Stunden.
Grafische Darstellung der letzten 48 Stunden.
Grafische Darstellung der letzten 72 Stunden.
Grafische Darstellung der letzten month.


Weather report/warning/Metars

Stuttgart-Echterdingen, Germany (EDDS) 48-41N 009-13E 391M
Sep 21, 2021 - 10:20 AM EDT / 2021.09.21 1420 UTC
Wind: from the N (360 degrees) at 7 MPH (6 KT) (direction variable):0
Visibility: greater than 7 mile(s):0
Sky conditions: mostly cloudy
Temperature: 60 F (16 C)
Dew Point: 44 F (7 C)
Relative Humidity: 55%
Pressure (altimeter): 30.36 in. Hg (1028 hPa)
ob: EDDS 211420Z 36006KT 310V040 9999 FEW037 BKN042 16/07 Q1028 NOSIG
cycle: 14
Karlsruhe, Baden Wurttemberg, Germany (EDSB) 48-46-43N 008-04-47E
Sep 21, 2021 - 10:20 AM EDT / 2021.09.21 1420 UTC
Wind: from the N (360 degrees) at 10 MPH (9 KT) (direction variable):0
Visibility: greater than 7 mile(s):0
Temperature: 62 F (17 C)
Dew Point: 46 F (8 C)
Relative Humidity: 55%
Pressure (altimeter): 30.36 in. Hg (1028 hPa)
ob: EDSB 211420Z 36009KT 330V030 CAVOK 17/08 Q1028
cycle: 14
Lahr, CAN-AFB, Germany (EDTL) 48-22-09N 007-49-40E
Sep 21, 2021 - 10:20 AM EDT / 2021.09.21 1420 UTC
Wind: from the N (350 degrees) at 12 MPH (10 KT):0
Visibility: greater than 7 mile(s):0
Sky conditions: mostly clear
Temperature: 64 F (18 C)
Dew Point: 48 F (9 C)
Relative Humidity: 55%
Pressure (altimeter): 30.33 in. Hg (1027 hPa)
ob: EDTL 211420Z 35010KT 9999 FEW040 18/09 Q1027
cycle: 14
Laupheim, Germany (ETHL) 48-13N 009-55E 550M
Sep 21, 2021 - 10:20 AM EDT / 2021.09.21 1420 UTC
Wind: from the NE (040 degrees) at 3 MPH (3 KT):0
Visibility: greater than 7 mile(s):0
Sky conditions: mostly cloudy
Temperature: 59 F (15 C)
Dew Point: 44 F (7 C)
Relative Humidity: 58%
Pressure (altimeter): 30.33 in. Hg (1027 hPa)
ob: ETHL 211420Z 04003KT 9999 FEW025 BKN042 15/07 Q1027 BLU BLU
cycle: 14


Klicken Sie hier, um zu den Durchschnitts-, Extrem-, Monats- oder Tageswerten zu gelangen


Die Wetterdaten werden alle 5 Minuten aktualisiert.
Die 3 stündige Echtzeitgrafik wird jede Minute aktualisiert.
Bei der 3 stündige Echtzeitgrafik sind derzeit die Skalenfarben von Winddurchschnitt u. Windböen vertauscht. (Softwarebug)

Drücken Sie gegebenenfalls auf "Aktualisieren" in Ihrem Browser, um die aktuellsten Daten zu erhalten.